Time;durP1;ratioP1;P1;durP2;ratioP2;P2;SDS_P1;SDS_P2;PMS_P1;PMS_P2;Temp;Humidity;BMP_temperature;BMP_pressure;BME280_temperature;BME280_humidity;BME280_pressure;Samples;Min_cycle;Max_cycle;Signal;HPM_P1;HPM_P2
2023/12/14 00:01:55;;;;;;;;;;;;;;;26.05;38.93;93182.84;5070286;28;7205;-59
2023/12/14 00:04:22;;;;;;;;;;;;;;;26.06;39.04;93192.56;5060375;28;10378;-59
2023/12/14 00:06:50;;;;;;;;;;;;;;;26.02;39.07;93179.16;5055535;28;6994;-60
2023/12/14 00:09:16;;;;;;;;;;;;;;;26.04;38.67;93187.59;5039992;28;7183;-60
2023/12/14 00:11:46;;;;;;;;;;;;;;;26.04;38.59;93195.88;5061968;28;9213;-60
2023/12/14 00:14:18;;;;;;;;;;;;;;;26.06;38.35;93198.81;5054668;28;7054;-59
2023/12/14 00:16:52;;;;;;;;;;;;;;;26.06;38.51;93211.84;5057757;28;7272;-64
2023/12/14 00:19:23;;;;;;;;;;;;;;;26.07;38.35;93202.31;5056604;28;7229;-63
2023/12/14 00:21:51;;;;;;;;;;;;;;;26.03;38.77;93197.16;5066233;28;8941;-64
2023/12/14 00:24:26;;;;;;;;;;;;;;;26.06;38.84;93198.09;5057737;28;7221;-64
2023/12/14 00:27:28;;;;;;;;;;;;;;;26.06;38.89;93212.59;5058728;28;7052;-64
2023/12/14 00:29:56;;;;;;;;;;;;;;;26.06;38.09;93212.59;4992987;28;7211;-63
2023/12/14 00:32:25;;;;;;;;;;;;;;;26.07;38.80;93211.34;4990564;28;9232;-64
2023/12/14 00:34:53;;;;;;;;;;;;;;;26.05;38.61;93218.66;4965961;28;7275;-64
2023/12/14 00:37:19;;;;;;;;;;;;;;;26.08;38.98;93228.59;4987449;28;9144;-64
2023/12/14 00:39:45;;;;;;;;;;;;;;;26.08;38.28;93225.81;4969921;28;7356;-64
2023/12/14 00:42:10;;;;;;;;;;;;;;;26.07;39.06;93222.34;4990494;28;7100;-64
2023/12/14 00:44:39;;;;;;;;;;;;;;;26.07;38.38;93233.38;4989335;28;7869;-64
2023/12/14 00:47:11;;;;;;;;;;;;;;;26.08;38.47;93237.63;4988823;28;8945;-64
2023/12/14 00:49:38;;;;;;;;;;;;;;;26.08;38.97;93245.13;4986542;28;7231;-64
2023/12/14 00:52:05;;;;;;;;;;;;;;;26.07;38.95;93249.91;4974946;28;7253;-64
2023/12/14 00:54:31;;;;;;;;;;;;;;;26.09;38.71;93252.16;4969352;28;9608;-64
2023/12/14 00:57:07;;;;;;;;;;;;;;;26.10;38.59;93250.84;4963261;28;6990;-64
2023/12/14 00:59:33;;;;;;;;;;;;;;;26.09;38.77;93249.41;4980647;28;7274;-65
2023/12/14 01:02:04;;;;;;;;;;;;;;;26.09;38.69;93255.66;4987751;28;7259;-64
2023/12/14 01:04:33;;;;;;;;;;;;;;;26.08;39.31;93253.38;5045928;28;7554;-64
2023/12/14 01:07:00;;;;;;;;;;;;;;;26.06;38.39;93262.19;5048198;28;7515;-64
2023/12/14 01:09:37;;;;;;;;;;;;;;;26.07;38.28;93266.44;5076299;28;7279;-64
2023/12/14 01:12:25;;;;;;;;;;;;;;;26.08;38.56;93269.91;5057838;28;7359;-64
2023/12/14 01:15:00;;;;;;;;;;;;;;;26.03;38.60;93266.03;5072243;28;7307;-64
2023/12/14 01:17:36;;;;;;;;;;;;;;;26.05;38.36;93271.75;5054964;28;6979;-64
2023/12/14 01:20:12;;;;;;;;;;;;;;;26.04;38.36;93267.50;5064740;28;9110;-64
2023/12/14 01:22:40;;;;;;;;;;;;;;;26.07;38.91;93285.75;5053201;28;7256;-64
2023/12/14 01:25:07;;;;;;;;;;;;;;;26.08;39.04;93291.97;5056547;28;7481;-64
2023/12/14 01:27:33;;;;;;;;;;;;;;;26.07;38.87;93294.00;5060608;28;7020;-64
2023/12/14 01:29:59;;;;;;;;;;;;;;;26.07;38.67;93296.75;5056452;28;7209;-64
2023/12/14 01:32:27;;;;;;;;;;;;;;;26.04;38.50;93295.06;5040128;28;7215;-64
2023/12/14 01:34:52;;;;;;;;;;;;;;;26.07;38.29;93307.78;5051138;28;9096;-64
2023/12/14 01:37:23;;;;;;;;;;;;;;;26.06;38.85;93311.81;5060417;28;8846;-65
2023/12/14 01:39:55;;;;;;;;;;;;;;;26.06;39.01;93311.81;5049763;28;7533;-65
2023/12/14 01:42:47;;;;;;;;;;;;;;;26.05;38.51;93318.59;5067409;28;7300;-65
2023/12/14 01:45:21;;;;;;;;;;;;;;;26.05;38.49;93326.88;4981774;28;6920;-62
2023/12/14 01:47:52;;;;;;;;;;;;;;;26.04;38.13;93319.88;4987915;28;7252;-61
2023/12/14 01:50:20;;;;;;;;;;;;;;;26.06;38.45;93316.56;5005931;28;7046;-61
2023/12/14 01:52:48;;;;;;;;;;;;;;;26.03;38.82;93323.19;4987205;28;7246;-61
2023/12/14 01:55:20;;;;;;;;;;;;;;;26.01;38.48;93331.97;4987321;28;9173;-61
2023/12/14 01:57:48;;;;;;;;;;;;;;;26.02;39.22;93333.44;4995133;28;7251;-60
2023/12/14 02:00:50;;;;;;;;;;;;;;;26.04;38.36;93338.41;5001379;28;7074;-61
2023/12/14 02:03:17;;;;;;;;;;;;;;;26.03;39.20;93340.44;4992694;28;7444;-61
2023/12/14 02:05:51;;;;;;;;;;;;;;;26.05;39.13;93332.38;4985986;28;7029;-61
2023/12/14 02:08:17;;;;;;;;;;;;;;;26.07;38.42;93335.34;4982176;28;7480;-60
2023/12/14 02:10:44;;;;;;;;;;;;;;;26.06;38.83;93339.34;4982826;28;9199;-60
2023/12/14 02:13:15;;;;;;;;;;;;;;;26.06;39.14;93347.63;5006805;28;7048;-61
2023/12/14 02:15:42;;;;;;;;;;;;;;;26.04;38.34;93347.44;4996237;28;6904;-61
2023/12/14 02:18:08;;;;;;;;;;;;;;;26.04;38.83;93350.19;4988330;28;7222;-61
2023/12/14 02:20:36;;;;;;;;;;;;;;;26.05;38.29;93348.91;5004363;28;8993;-61
2023/12/14 02:23:09;;;;;;;;;;;;;;;26.07;38.23;93348.38;5048369;28;7236;-61
2023/12/14 02:25:41;;;;;;;;;;;;;;;26.06;39.24;93353.13;5069214;28;7446;-61
2023/12/14 02:28:38;;;;;;;;;;;;;;;26.05;38.40;93359.94;5062024;28;7187;-61
2023/12/14 02:31:04;;;;;;;;;;;;;;;26.05;38.75;93359.94;5005466;28;7184;-61
2023/12/14 02:33:53;;;;;;;;;;;;;;;26.05;38.97;93376.47;5006202;28;9435;-61
2023/12/14 02:36:24;;;;;;;;;;;;;;;26.03;38.86;93367.97;5008123;28;7290;-61
2023/12/14 02:38:59;;;;;;;;;;;;;;;26.04;38.92;93386.00;5002604;28;7262;-60
2023/12/14 02:41:25;;;;;;;;;;;;;;;25.99;38.54;93381.34;5018523;28;7070;-61
2023/12/14 02:44:07;;;;;;;;;;;;;;;26.00;38.85;93393.13;5006833;28;9224;-61
2023/12/14 02:46:59;;;;;;;;;;;;;;;26.00;38.68;93399.38;4994651;28;7233;-61
2023/12/14 02:49:40;;;;;;;;;;;;;;;25.94;39.08;93393.28;4994279;28;9090;-61
2023/12/14 02:52:17;;;;;;;;;;;;;;;25.93;38.49;93397.28;4995673;28;7155;-61
2023/12/14 02:55:02;;;;;;;;;;;;;;;25.98;38.47;93407.44;5007568;28;9312;-61
2023/12/14 02:58:06;;;;;;;;;;;;;;;25.98;38.53;93403.94;5002402;28;7565;-64
2023/12/14 03:00:36;;;;;;;;;;;;;;;25.98;38.98;93412.22;5008641;28;9121;-64
2023/12/14 03:03:06;;;;;;;;;;;;;;;25.97;39.03;93411.47;5005012;28;7381;-64
2023/12/14 03:05:44;;;;;;;;;;;;;;;25.99;38.80;93413.72;4984818;28;7173;-64
2023/12/14 03:08:14;;;;;;;;;;;;;;;26.00;38.55;93407.66;5049272;28;6980;-64
2023/12/14 03:10:40;;;;;;;;;;;;;;;26.02;38.93;93416.13;5044841;28;9511;-65
2023/12/14 03:13:51;;;;;;;;;;;;;;;26.00;38.80;93415.91;5059186;28;7214;-63
2023/12/14 03:16:32;;;;;;;;;;;;;;;26.00;39.26;93423.44;5042397;28;9488;-64
2023/12/14 03:19:07;;;;;;;;;;;;;;;25.99;39.20;93422.69;5063461;28;7295;-64
2023/12/14 03:21:33;;;;;;;;;;;;;;;26.03;38.89;93427.88;5071224;28;8680;-65
2023/12/14 03:24:50;;;;;;;;;;;;;;;26.01;38.58;93433.19;5057721;28;9152;-64
2023/12/14 03:27:26;;;;;;;;;;;;;;;26.00;38.96;93439.97;4978790;28;9055;-64
2023/12/14 03:29:52;;;;;;;;;;;;;;;26.01;39.06;93433.91;4993724;28;7385;-64
2023/12/14 03:32:18;;;;;;;;;;;;;;;26.00;39.04;93442.72;4976059;28;9134;-64
2023/12/14 03:34:44;;;;;;;;;;;;;;;26.01;38.47;93441.47;4976189;28;7282;-64
2023/12/14 03:37:24;;;;;;;;;;;;;;;26.00;39.16;93439.97;4971259;28;7142;-64
2023/12/14 03:40:01;;;;;;;;;;;;;;;26.01;39.04;93446.97;4986422;28;7044;-64
2023/12/14 03:42:43;;;;;;;;;;;;;;;26.00;38.87;93442.72;4976527;28;9087;-64
2023/12/14 03:45:19;;;;;;;;;;;;;;;25.97;38.62;93452.78;4996615;28;7244;-64
2023/12/14 03:48:15;;;;;;;;;;;;;;;25.99;38.80;93461.25;4992013;28;9105;-64
2023/12/14 03:50:56;;;;;;;;;;;;;;;26.00;38.41;93467.53;4961267;28;9485;-63
2023/12/14 03:53:57;;;;;;;;;;;;;;;26.01;39.03;93460.75;4974914;28;9461;-64
2023/12/14 03:56:31;;;;;;;;;;;;;;;26.00;38.38;93462.75;4936506;28;7201;-64
2023/12/14 03:59:10;;;;;;;;;;;;;;;26.01;38.63;93477.28;4921157;29;7234;-64
2023/12/14 04:01:53;;;;;;;;;;;;;;;26.00;38.84;93473.78;4937964;28;7010;-64
2023/12/14 04:04:31;;;;;;;;;;;;;;;25.97;38.63;93479.59;4954490;28;7367;-64
2023/12/14 04:07:06;;;;;;;;;;;;;;;26.00;38.99;93487.56;4974513;28;7359;-65
2023/12/14 04:09:33;;;;;;;;;;;;;;;25.99;38.67;93488.81;4974498;28;7202;-65
2023/12/14 04:12:01;;;;;;;;;;;;;;;25.99;38.70;93486.06;4974495;28;7145;-65
2023/12/14 04:14:29;;;;;;;;;;;;;;;26.01;38.32;93488.31;4979127;28;7344;-65
2023/12/14 04:17:26;;;;;;;;;;;;;;;26.00;38.86;93495.81;4974072;28;9031;-65
2023/12/14 04:19:56;;;;;;;;;;;;;;;25.98;38.47;93498.38;4935824;28;7214;-65
2023/12/14 04:22:24;;;;;;;;;;;;;;;25.98;38.78;93503.88;4916703;29;8733;-65
2023/12/14 04:24:58;;;;;;;;;;;;;;;25.99;39.12;93505.34;4907691;29;7433;-65
2023/12/14 04:27:33;;;;;;;;;;;;;;;26.00;38.55;93514.38;4905006;29;7222;-65
2023/12/14 04:30:10;;;;;;;;;;;;;;;26.00;38.51;93517.88;4942486;28;7443;-65
2023/12/14 04:32:47;;;;;;;;;;;;;;;26.00;38.80;93517.88;4961189;28;7302;-65
2023/12/14 04:35:26;;;;;;;;;;;;;;;25.99;38.56;93515.66;4964737;28;7269;-65
2023/12/14 04:38:04;;;;;;;;;;;;;;;25.99;38.86;93513.63;4965593;28;7259;-65
2023/12/14 04:40:40;;;;;;;;;;;;;;;25.99;38.79;93521.16;4971755;28;7250;-65
2023/12/14 04:43:19;;;;;;;;;;;;;;;26.00;38.78;93526.13;4970255;28;7468;-65
2023/12/14 04:45:45;;;;;;;;;;;;;;;25.98;39.26;93533.44;4944062;28;7002;-65
2023/12/14 04:48:22;;;;;;;;;;;;;;;25.97;39.41;93540.97;4960550;28;9068;-65
2023/12/14 04:50:49;;;;;;;;;;;;;;;25.96;39.01;93534.00;4953180;28;6956;-65
2023/12/14 04:53:15;;;;;;;;;;;;;;;26.00;38.72;93548.19;4966247;28;9249;-65
2023/12/14 04:55:48;;;;;;;;;;;;;;;25.99;38.53;93554.22;4978396;28;7243;-65
2023/12/14 04:58:16;;;;;;;;;;;;;;;25.97;39.00;93549.22;5060168;28;9073;-65
2023/12/14 05:00:43;;;;;;;;;;;;;;;25.98;38.37;93564.50;5024769;28;7376;-65
2023/12/14 05:03:10;;;;;;;;;;;;;;;25.98;38.62;93575.53;5059689;28;7053;-65
2023/12/14 05:05:36;;;;;;;;;;;;;;;25.98;39.08;93572.78;5059344;28;9241;-65
2023/12/14 05:08:02;;;;;;;;;;;;;;;25.98;38.83;93577.53;5063813;28;7658;-65
2023/12/14 05:10:34;;;;;;;;;;;;;;;25.96;39.24;93578.06;5051735;28;9414;-65
2023/12/14 05:13:06;;;;;;;;;;;;;;;25.96;38.30;93589.09;5056729;28;7228;-65
2023/12/14 05:15:34;;;;;;;;;;;;;;;25.96;39.04;93591.84;5047011;28;7423;-55
2023/12/14 05:18:03;;;;;;;;;;;;;;;25.94;38.52;93591.66;5042817;28;9056;-55
2023/12/14 05:20:29;;;;;;;;;;;;;;;25.95;38.83;93603.38;5055550;28;7263;-55
2023/12/14 05:22:57;;;;;;;;;;;;;;;25.96;39.46;93597.38;5051836;28;7684;-55
2023/12/14 05:25:23;;;;;;;;;;;;;;;25.95;38.33;93600.63;5062948;28;6935;-55
2023/12/14 05:27:58;;;;;;;;;;;;;;;25.95;39.10;93609.66;5056028;28;8772;-55
2023/12/14 05:30:41;;;;;;;;;;;;;;;25.89;38.58;93611.78;5040045;28;9150;-55
2023/12/14 05:33:10;;;;;;;;;;;;;;;25.92;38.66;93621.00;5055271;28;7182;-55
2023/12/14 05:35:42;;;;;;;;;;;;;;;25.93;38.36;93617.69;5043051;28;8229;-55
2023/12/14 05:38:09;;;;;;;;;;;;;;;25.96;39.01;93624.91;5061702;28;9160;-55
2023/12/14 05:40:41;;;;;;;;;;;;;;;25.98;38.75;93632.63;5046047;28;9157;-55
2023/12/14 05:43:28;;;;;;;;;;;;;;;25.97;38.51;93629.13;5051317;28;10090;-55
2023/12/14 05:45:59;;;;;;;;;;;;;;;25.97;38.51;93639.41;5051976;28;6976;-54
2023/12/14 05:48:27;;;;;;;;;;;;;;;25.97;38.58;93642.91;5050368;28;8720;-55
2023/12/14 05:50:53;;;;;;;;;;;;;;;25.94;38.96;93640.50;5050038;28;7023;-56
2023/12/14 05:53:25;;;;;;;;;;;;;;;25.96;38.62;93644.19;5063229;28;9406;-55
2023/12/14 05:55:59;;;;;;;;;;;;;;;25.98;39.24;93651.94;5047453;28;7394;-55
2023/12/14 05:58:31;;;;;;;;;;;;;;;25.98;39.07;93655.44;5061449;28;7233;-55
2023/12/14 06:01:18;;;;;;;;;;;;;;;25.98;38.50;93657.44;5057321;28;7205;-55
2023/12/14 06:03:59;;;;;;;;;;;;;;;25.98;37.85;93665.72;5057797;28;7274;-55
2023/12/14 06:06:28;;;;;;;;;;;;;;;25.95;38.49;93670.25;5052805;28;6993;-55
2023/12/14 06:08:56;;;;;;;;;;;;;;;25.97;37.79;93673.22;5049327;28;7030;-55
2023/12/14 06:11:25;;;;;;;;;;;;;;;25.98;38.36;93680.22;5053698;28;8804;-55
2023/12/14 06:14:00;;;;;;;;;;;;;;;25.98;38.34;93688.50;5061141;28;7466;-55
2023/12/14 06:16:33;;;;;;;;;;;;;;;25.98;38.38;93696.75;5043617;28;9217;-55
2023/12/14 06:19:33;;;;;;;;;;;;;;;25.99;37.80;93703.75;5067305;28;6859;-55
2023/12/14 06:22:19;;;;;;;;;;;;;;;25.98;37.78;93707.78;4985392;28;9142;-55
2023/12/14 06:25:17;;;;;;;;;;;;;;;26.02;37.51;93719.22;4968604;28;8982;-55
2023/12/14 06:27:52;;;;;;;;;;;;;;;26.00;37.59;93732.78;4988188;28;8779;-61
2023/12/14 06:30:33;;;;;;;;;;;;;;;26.00;37.66;93727.28;4989785;28;7188;-63
2023/12/14 06:33:14;;;;;;;;;;;;;;;26.01;37.83;93737.03;4974227;28;10166;-62
2023/12/14 06:35:40;;;;;;;;;;;;;;;25.98;37.52;93738.09;4984473;28;7078;-62
2023/12/14 06:38:09;;;;;;;;;;;;;;;26.00;37.64;93746.56;4986810;28;7189;-62
2023/12/14 06:40:45;;;;;;;;;;;;;;;26.00;37.81;93743.81;4986335;28;9052;-62
2023/12/14 06:43:23;;;;;;;;;;;;;;;26.01;37.77;93752.84;4984093;28;7353;-63
2023/12/14 06:46:24;;;;;;;;;;;;;;;26.01;37.41;93761.81;4987001;28;7615;-63
2023/12/14 06:49:24;;;;;;;;;;;;;;;26.01;37.53;93767.34;4899429;29;6981;-63
2023/12/14 06:52:20;;;;;;;;;;;;;;;26.00;38.06;93771.38;4907462;29;7317;-63
2023/12/14 06:55:04;;;;;;;;;;;;;;;26.00;37.33;93776.13;4862112;29;7304;-62
2023/12/14 06:58:01;;;;;;;;;;;;;;;26.01;37.26;93778.34;4877372;29;7392;-63
2023/12/14 07:00:58;;;;;;;;;;;;;;;26.02;37.68;93779.84;4899589;29;10023;-62
2023/12/14 07:03:24;;;;;;;;;;;;;;;26.01;37.82;93783.16;4911798;29;7253;-62
2023/12/14 07:05:59;;;;;;;;;;;;;;;26.00;37.98;93784.41;4903517;29;7308;-62
2023/12/14 07:08:40;;;;;;;;;;;;;;;25.98;37.41;93784.94;4901099;29;8190;-63
2023/12/14 07:11:39;;;;;;;;;;;;;;;25.99;38.06;93791.19;4917305;29;7240;-63
2023/12/14 07:14:06;;;;;;;;;;;;;;;25.99;37.90;93796.72;4861159;29;7674;-62
2023/12/14 07:16:44;;;;;;;;;;;;;;;26.00;37.34;93787.16;4876346;29;7078;-62
2023/12/14 07:19:46;;;;;;;;;;;;;;;26.00;37.01;93798.94;4861007;29;8756;-62
2023/12/14 07:22:35;;;;;;;;;;;;;;;25.99;37.12;93804.97;4841004;29;7829;-62
2023/12/14 07:25:19;;;;;;;;;;;;;;;25.98;37.86;93807.00;4879508;29;7354;-62
2023/12/14 07:28:10;;;;;;;;;;;;;;;25.97;37.51;93811.00;4874246;29;7319;-62
2023/12/14 07:30:53;;;;;;;;;;;;;;;26.00;37.46;93809.22;4871456;29;7060;-62
2023/12/14 07:33:28;;;;;;;;;;;;;;;25.99;37.89;93825.00;4897994;29;7266;-62
2023/12/14 07:36:24;;;;;;;;;;;;;;;26.00;37.37;93832.00;4898603;29;7617;-62
2023/12/14 07:39:01;;;;;;;;;;;;;;;26.01;37.45;93835.50;4845492;29;7239;-62
2023/12/14 07:41:29;;;;;;;;;;;;;;;25.99;38.13;93838.06;4901236;29;8037;-62
2023/12/14 07:43:56;;;;;;;;;;;;;;;25.95;37.39;93835.59;4904232;29;7291;-63
2023/12/14 07:46:24;;;;;;;;;;;;;;;25.98;37.20;93848.31;4902776;29;7268;-63
2023/12/14 07:48:50;;;;;;;;;;;;;;;25.97;37.36;93849.56;4891794;28;9479;-63
2023/12/14 07:51:16;;;;;;;;;;;;;;;25.98;37.76;93853.84;4937012;28;8988;-62
2023/12/14 07:53:46;;;;;;;;;;;;;;;25.97;37.69;93849.56;4941927;28;8919;-62
2023/12/14 07:56:12;;;;;;;;;;;;;;;26.00;37.33;93859.56;4962410;28;7084;-63
2023/12/14 07:58:57;;;;;;;;;;;;;;;25.97;38.02;93860.59;4982141;28;6970;-63
2023/12/14 08:01:50;;;;;;;;;;;;;;;26.01;37.38;93871.34;4989472;28;7344;-63
2023/12/14 08:04:19;;;;;;;;;;;;;;;26.00;37.46;93873.34;4993390;28;7475;-63
2023/12/14 08:06:57;;;;;;;;;;;;;;;26.01;37.32;93877.56;4984044;28;9121;-62
2023/12/14 08:09:28;;;;;;;;;;;;;;;26.01;37.93;93891.34;4981440;28;9304;-63
2023/12/14 08:11:54;;;;;;;;;;;;;;;26.00;37.62;93886.38;4993164;28;7100;-62
2023/12/14 08:14:38;;;;;;;;;;;;;;;25.96;36.54;93891.44;4987385;28;7185;-63
2023/12/14 08:17:31;;;;;;;;;;;;;;;25.62;33.92;93893.94;5062952;28;7117;-63
2023/12/14 08:19:57;;;;;;;;;;;;;;;25.42;32.25;93905.50;4982841;28;8094;-63
2023/12/14 08:22:35;;;;;;;;;;;;;;;25.37;32.57;93904.28;4990941;28;7264;-62
2023/12/14 08:25:01;;;;;;;;;;;;;;;25.40;32.61;93902.50;4983740;28;7206;-63
2023/12/14 08:27:38;;;;;;;;;;;;;;;25.43;31.03;93909.75;4986078;28;7180;-63
2023/12/14 08:30:12;;;;;;;;;;;;;;;25.49;31.87;93921.41;4971027;28;6983;-63
2023/12/14 08:32:46;;;;;;;;;;;;;;;25.50;32.25;93922.91;4990496;28;7045;-63
2023/12/14 08:35:16;;;;;;;;;;;;;;;25.54;31.30;93930.88;4989074;28;7286;-63
2023/12/14 08:37:44;;;;;;;;;;;;;;;25.55;32.19;93935.88;4987932;28;7049;-63
2023/12/14 08:40:11;;;;;;;;;;;;;;;25.61;31.88;93942.03;4970953;28;9126;-63
2023/12/14 08:42:37;;;;;;;;;;;;;;;25.62;32.63;93946.28;4972254;28;7005;-63
2023/12/14 08:45:19;;;;;;;;;;;;;;;25.65;32.40;93945.25;4979468;28;7213;-63
2023/12/14 08:48:06;;;;;;;;;;;;;;;25.68;32.75;93957.22;4992883;28;7056;-57
2023/12/14 08:51:00;;;;;;;;;;;;;;;25.69;32.98;93962.22;4976711;28;7273;-57
2023/12/14 08:53:58;;;;;;;;;;;;;;;25.71;33.65;93964.47;4991372;28;7203;-57
2023/12/14 08:56:27;;;;;;;;;;;;;;;25.73;33.57;93962.66;4996230;28;7113;-57
2023/12/14 08:58:53;;;;;;;;;;;;;;;25.75;33.01;93971.13;5028033;28;7238;-57
2023/12/14 09:01:25;;;;;;;;;;;;;;;25.72;33.39;93972.19;5008500;28;7050;-56
2023/12/14 09:03:56;;;;;;;;;;;;;;;25.75;33.29;93976.66;5012030;28;7169;-56
2023/12/14 09:06:25;;;;;;;;;;;;;;;25.77;33.88;93990.66;5014538;28;10414;-57
2023/12/14 09:09:03;;;;;;;;;;;;;;;25.79;33.51;93993.66;5035341;28;7138;-56
2023/12/14 09:11:35;;;;;;;;;;;;;;;25.80;34.14;94008.88;5032953;28;7282;-56
2023/12/14 09:14:23;;;;;;;;;;;;;;;25.78;33.40;94005.91;5031776;28;7260;-56
2023/12/14 09:17:04;;;;;;;;;;;;;;;25.85;34.15;94013.59;5033967;28;8825;-55
2023/12/14 09:19:33;;;;;;;;;;;;;;;25.84;34.37;94020.34;5009381;28;7413;-56
2023/12/14 09:22:01;;;;;;;;;;;;;;;25.84;34.54;94027.88;5017502;28;9098;-56
2023/12/14 09:24:29;;;;;;;;;;;;;;;25.85;33.96;94034.88;5023385;28;7273;-56
2023/12/14 09:26:55;;;;;;;;;;;;;;;25.82;33.84;94039.41;5019951;28;7438;-56
2023/12/14 09:29:21;;;;;;;;;;;;;;;25.83;34.22;94048.44;5017954;28;8775;-56
2023/12/14 09:31:50;;;;;;;;;;;;;;;25.83;34.61;94051.19;5018614;28;6969;-56
2023/12/14 09:34:26;;;;;;;;;;;;;;;25.82;34.05;94061.47;5062139;28;9054;-56
2023/12/14 09:36:55;;;;;;;;;;;;;;;25.82;34.17;94063.47;5056210;28;7010;-57
2023/12/14 09:39:27;;;;;;;;;;;;;;;25.82;34.24;94069.72;5073504;28;9231;-56
2023/12/14 09:42:19;;;;;;;;;;;;;;;25.85;35.01;94073.44;5064027;28;7334;-56
2023/12/14 09:44:56;;;;;;;;;;;;;;;25.83;34.87;94079.50;5045969;28;7745;-56
2023/12/14 09:47:28;;;;;;;;;;;;;;;25.83;35.10;94082.25;5059674;28;7255;-56
2023/12/14 09:50:01;;;;;;;;;;;;;;;25.81;34.67;94076.50;5079620;28;6931;-57
2023/12/14 09:52:58;;;;;;;;;;;;;;;25.83;34.70;94085.00;5063286;28;7875;-56
2023/12/14 09:55:36;;;;;;;;;;;;;;;25.83;34.88;94082.25;5046630;28;7149;-62
2023/12/14 09:58:27;;;;;;;;;;;;;;;25.84;34.62;94094.00;5056121;28;6982;-62
2023/12/14 10:01:24;;;;;;;;;;;;;;;25.83;34.43;94092.50;5054952;28;7004;-63
2023/12/14 10:04:16;;;;;;;;;;;;;;;25.84;35.53;94094.00;5070982;28;8473;-62
2023/12/14 10:06:47;;;;;;;;;;;;;;;25.85;34.90;94093.50;5067503;28;9289;-62
2023/12/14 10:09:25;;;;;;;;;;;;;;;25.85;35.25;94099.00;5071913;28;9100;-62
2023/12/14 10:12:06;;;;;;;;;;;;;;;25.86;35.09;94094.97;5074402;28;8251;-62
2023/12/14 10:14:37;;;;;;;;;;;;;;;25.88;35.22;94111.00;5052591;28;9970;-62
2023/12/14 10:17:31;;;;;;;;;;;;;;;25.87;35.39;94107.50;5066910;28;8835;-62
2023/12/14 10:20:45;;;;;;;;;;;;;;;25.88;35.15;94106.22;5056678;28;7196;-62
2023/12/14 10:23:12;;;;;;;;;;;;;;;25.86;35.95;94103.22;4982926;28;8789;-62
2023/12/14 10:26:08;;;;;;;;;;;;;;;25.87;35.29;94110.25;4978961;28;7483;-61
2023/12/14 10:28:42;;;;;;;;;;;;;;;25.90;35.52;94113.97;4894184;29;9253;-62
2023/12/14 10:31:10;;;;;;;;;;;;;;;25.90;35.92;94117.47;4919992;29;7264;-61
2023/12/14 10:34:02;;;;;;;;;;;;;;;25.90;35.86;94105.72;4908274;29;7407;-62
2023/12/14 10:36:36;;;;;;;;;;;;;;;25.89;35.99;94109.72;4914237;29;8206;-62
2023/12/14 10:39:08;;;;;;;;;;;;;;;25.90;36.02;94114.69;4912772;29;6985;-62
2023/12/14 10:42:05;;;;;;;;;;;;;;;25.90;35.49;94114.69;4914739;29;8924;-62
2023/12/14 10:44:36;;;;;;;;;;;;;;;25.88;35.66;94105.50;4871254;29;9121;-62
2023/12/14 10:47:07;;;;;;;;;;;;;;;25.91;36.01;94104.44;4868566;29;7062;-62
2023/12/14 10:49:36;;;;;;;;;;;;;;;25.91;35.76;94113.44;4874510;29;8186;-62
2023/12/14 10:52:16;;;;;;;;;;;;;;;25.89;35.98;94115.97;4876026;29;7217;-62
2023/12/14 10:54:49;;;;;;;;;;;;;;;25.90;36.47;94113.97;4869915;29;8391;-62
2023/12/14 10:57:29;;;;;;;;;;;;;;;25.89;36.06;94129.75;4875135;29;7039;-62
2023/12/14 11:00:08;;;;;;;;;;;;;;;25.89;36.36;94135.28;4895632;29;7126;-62
2023/12/14 11:03:03;;;;;;;;;;;;;;;25.91;35.89;94132.75;4933499;29;7149;-62
2023/12/14 11:05:40;;;;;;;;;;;;;;;25.91;35.78;94137.50;4970000;28;9025;-61
2023/12/14 11:08:11;;;;;;;;;;;;;;;25.89;36.77;94138.03;4974281;28;7010;-61
2023/12/14 11:11:10;;;;;;;;;;;;;;;25.89;36.15;94151.81;4981352;28;9128;-61
2023/12/14 11:13:56;;;;;;;;;;;;;;;25.91;36.23;94154.03;4979377;28;7226;-61
2023/12/14 11:17:07;;;;;;;;;;;;;;;25.90;36.70;94153.28;4993528;28;7240;-61
2023/12/14 11:19:42;;;;;;;;;;;;;;;25.90;36.42;94163.56;4991011;28;7389;-61
2023/12/14 11:22:37;;;;;;;;;;;;;;;25.89;35.91;94168.34;5047930;28;8937;-61
2023/12/14 11:25:06;;;;;;;;;;;;;;;25.88;36.53;94164.06;5063596;28;8810;-61
2023/12/14 11:27:44;;;;;;;;;;;;;;;25.88;36.21;94171.63;5053101;28;7263;-62
2023/12/14 11:30:19;;;;;;;;;;;;;;;25.87;36.11;94165.34;5046388;28;7180;-61
2023/12/14 11:32:49;;;;;;;;;;;;;;;25.87;36.95;94170.88;5069437;28;7064;-62
2023/12/14 11:35:20;;;;;;;;;;;;;;;25.87;36.46;94184.63;5045519;28;9111;-61
2023/12/14 11:37:48;;;;;;;;;;;;;;;25.86;36.54;94172.13;5065060;28;7230;-61
2023/12/14 11:40:22;;;;;;;;;;;;;;;25.87;36.63;94186.66;5065126;28;8065;-62
2023/12/14 11:43:40;;;;;;;;;;;;;;;25.88;36.39;94180.59;5059155;28;7342;-62
2023/12/14 11:46:14;;;;;;;;;;;;;;;25.88;36.78;94191.63;5061867;28;7513;-61
2023/12/14 11:49:03;;;;;;;;;;;;;;;25.88;36.82;94188.16;5068092;28;8049;-61
2023/12/14 11:51:33;;;;;;;;;;;;;;;25.86;36.73;94191.41;5064644;28;7154;-61
2023/12/14 11:54:04;;;;;;;;;;;;;;;25.86;36.63;94191.41;5057878;28;7286;-61
2023/12/14 11:56:38;;;;;;;;;;;;;;;25.87;36.21;94189.41;5049422;28;7193;-61
2023/12/14 11:59:04;;;;;;;;;;;;;;;25.87;36.22;94195.66;5066395;28;6993;-61
2023/12/14 12:01:53;;;;;;;;;;;;;;;25.88;36.82;94199.91;5056980;28;9045;-60
2023/12/14 12:04:30;;;;;;;;;;;;;;;25.88;36.61;94201.94;5059939;28;7117;-60
2023/12/14 12:07:16;;;;;;;;;;;;;;;25.90;36.25;94199.41;5080552;28;7227;-61
2023/12/14 12:09:44;;;;;;;;;;;;;;;25.89;37.00;94198.66;5050146;28;7167;-60
2023/12/14 12:12:23;;;;;;;;;;;;;;;25.89;37.01;94206.91;5070315;28;8582;-61
2023/12/14 12:14:53;;;;;;;;;;;;;;;25.88;36.93;94194.38;5067033;28;7323;-61
2023/12/14 12:17:26;;;;;;;;;;;;;;;25.91;36.72;94207.13;5041566;28;9124;-63
2023/12/14 12:19:55;;;;;;;;;;;;;;;25.91;36.72;94207.13;5054727;28;7521;-63
2023/12/14 12:22:23;;;;;;;;;;;;;;;25.91;37.20;94207.13;5062177;28;7091;-63
2023/12/14 12:24:52;;;;;;;;;;;;;;;25.92;36.69;94216.16;5071885;28;9072;-64
2023/12/14 12:27:21;;;;;;;;;;;;;;;25.93;36.87;94212.13;5041977;28;7240;-63
2023/12/14 12:29:47;;;;;;;;;;;;;;;25.91;36.82;94220.91;5051867;28;7209;-63
2023/12/14 12:32:16;;;;;;;;;;;;;;;25.91;36.88;94218.16;5049738;28;8927;-63
2023/12/14 12:34:44;;;;;;;;;;;;;;;25.91;36.53;94226.44;5054800;28;7232;-63
2023/12/14 12:37:15;;;;;;;;;;;;;;;25.94;36.84;94227.41;5053842;28;7228;-63
2023/12/14 12:40:02;;;;;;;;;;;;;;;25.92;36.69;94221.66;5073867;28;7068;-62
2023/12/14 12:42:40;;;;;;;;;;;;;;;25.77;34.32;94222.06;5057134;28;9741;-63
2023/12/14 12:45:45;;;;;;;;;;;;;;;25.67;33.66;94222.91;5050720;28;6977;-64
2023/12/14 12:48:37;;;;;;;;;;;;;;;25.63;32.84;94233.47;5057660;28;8911;-63
2023/12/14 12:51:05;;;;;;;;;;;;;;;25.61;33.71;94235.97;5047180;28;9565;-63
2023/12/14 12:53:40;;;;;;;;;;;;;;;25.63;33.39;94236.97;5072232;28;7272;-63
2023/12/14 12:56:20;;;;;;;;;;;;;;;25.63;34.00;94228.72;5055957;28;7098;-64
2023/12/14 12:59:16;;;;;;;;;;;;;;;25.66;33.53;94240.72;5061885;28;7378;-64
2023/12/14 13:01:54;;;;;;;;;;;;;;;25.65;33.54;94234.44;5030424;28;7080;-64
2023/12/14 13:04:47;;;;;;;;;;;;;;;25.70;34.59;94241.16;5012692;28;7520;-64
2023/12/14 13:07:29;;;;;;;;;;;;;;;25.70;34.10;94239.16;5009246;28;7288;-64
2023/12/14 13:10:10;;;;;;;;;;;;;;;25.73;34.54;94249.13;5031711;28;7183;-64
2023/12/14 13:12:38;;;;;;;;;;;;;;;25.73;35.12;94243.63;5016122;28;7001;-64
2023/12/14 13:15:05;;;;;;;;;;;;;;;25.76;34.59;94252.88;5025661;28;7042;-64
2023/12/14 13:17:55;;;;;;;;;;;;;;;25.79;34.35;94257.38;5009319;28;7329;-63
2023/12/14 13:20:23;;;;;;;;;;;;;;;25.79;34.17;94263.63;5028204;28;8167;-64
2023/12/14 13:22:52;;;;;;;;;;;;;;;25.79;34.17;94263.63;5014896;28;7560;-64
2023/12/14 13:25:29;;;;;;;;;;;;;;;25.76;34.43;94272.16;5036416;28;7353;-62
2023/12/14 13:28:05;;;;;;;;;;;;;;;25.78;34.83;94277.91;5027496;28;7259;-63
2023/12/14 13:30:51;;;;;;;;;;;;;;;25.78;34.54;94283.41;5026161;28;9470;-63
2023/12/14 13:33:27;;;;;;;;;;;;;;;25.74;34.66;94288.47;5031594;28;9079;-63
2023/12/14 13:35:55;;;;;;;;;;;;;;;25.75;34.74;94295.47;5028711;28;7849;-63
2023/12/14 13:38:21;;;;;;;;;;;;;;;25.73;34.67;94292.50;5034564;28;7243;-64
2023/12/14 13:40:47;;;;;;;;;;;;;;;25.72;34.44;94293.72;5058731;28;9214;-63
2023/12/14 13:43:14;;;;;;;;;;;;;;;25.65;32.75;94286.78;5044938;28;7067;-64
2023/12/14 13:46:11;;;;;;;;;;;;;;;25.65;34.70;94292.28;5070619;28;6976;-64